sensor_id;sensor_type;location;lat;lon;timestamp;P1;durP1;ratioP1;P2;durP2;ratioP2
50128;SDS011;36026;45.478;9.224;2023-09-12T00:03:43;16.95;;;14.00;;
50128;SDS011;36026;45.478;9.224;2023-09-12T00:06:45;15.93;;;13.13;;
50128;SDS011;36026;45.478;9.224;2023-09-12T00:09:48;21.52;;;14.82;;
50128;SDS011;36026;45.478;9.224;2023-09-12T00:12:50;22.17;;;15.95;;
50128;SDS011;36026;45.478;9.224;2023-09-12T00:15:52;18.63;;;14.32;;
50128;SDS011;36026;45.478;9.224;2023-09-12T00:18:54;18.70;;;14.83;;
50128;SDS011;36026;45.478;9.224;2023-09-12T00:29:37;17.55;;;14.05;;
50128;SDS011;36026;45.478;9.224;2023-09-12T00:32:39;16.98;;;14.00;;
50128;SDS011;36026;45.478;9.224;2023-09-12T00:35:42;17.93;;;14.20;;
50128;SDS011;36026;45.478;9.224;2023-09-12T00:38:54;19.48;;;13.27;;
50128;SDS011;36026;45.478;9.224;2023-09-12T00:42:00;18.77;;;14.13;;
50128;SDS011;36026;45.478;9.224;2023-09-12T00:45:02;19.38;;;14.55;;
50128;SDS011;36026;45.478;9.224;2023-09-12T00:48:06;17.40;;;13.93;;
50128;SDS011;36026;45.478;9.224;2023-09-12T00:51:09;19.67;;;14.18;;
50128;SDS011;36026;45.478;9.224;2023-09-12T00:54:11;19.48;;;14.55;;
50128;SDS011;36026;45.478;9.224;2023-09-12T00:57:14;23.85;;;14.13;;
50128;SDS011;36026;45.478;9.224;2023-09-12T01:00:28;19.67;;;13.93;;
50128;SDS011;36026;45.478;9.224;2023-09-12T01:03:30;21.95;;;14.80;;
50128;SDS011;36026;45.478;9.224;2023-09-12T01:06:33;16.60;;;14.03;;
50128;SDS011;36026;45.478;9.224;2023-09-12T01:09:38;18.13;;;14.52;;
50128;SDS011;36026;45.478;9.224;2023-09-12T01:12:43;21.10;;;14.88;;
50128;SDS011;36026;45.478;9.224;2023-09-12T01:15:45;23.45;;;14.43;;
50128;SDS011;36026;45.478;9.224;2023-09-12T01:18:47;24.17;;;15.40;;
50128;SDS011;36026;45.478;9.224;2023-09-12T01:21:59;27.50;;;15.60;;
50128;SDS011;36026;45.478;9.224;2023-09-12T01:25:26;23.50;;;15.30;;
50128;SDS011;36026;45.478;9.224;2023-09-12T01:28:38;25.98;;;15.23;;
50128;SDS011;36026;45.478;9.224;2023-09-12T01:31:44;25.05;;;16.23;;
50128;SDS011;36026;45.478;9.224;2023-09-12T01:34:47;23.15;;;15.40;;
50128;SDS011;36026;45.478;9.224;2023-09-12T01:37:52;24.42;;;15.55;;
50128;SDS011;36026;45.478;9.224;2023-09-12T01:40:54;21.73;;;16.30;;
50128;SDS011;36026;45.478;9.224;2023-09-12T01:43:58;22.63;;;16.52;;
50128;SDS011;36026;45.478;9.224;2023-09-12T01:47:02;18.23;;;15.88;;
50128;SDS011;36026;45.478;9.224;2023-09-12T01:50:05;24.98;;;17.10;;
50128;SDS011;36026;45.478;9.224;2023-09-12T01:53:09;20.10;;;16.95;;
50128;SDS011;36026;45.478;9.224;2023-09-12T01:56:23;19.90;;;16.58;;
50128;SDS011;36026;45.478;9.224;2023-09-12T01:59:27;20.85;;;17.42;;
50128;SDS011;36026;45.478;9.224;2023-09-12T02:02:42;24.98;;;20.45;;
50128;SDS011;36026;45.478;9.224;2023-09-12T02:05:43;25.27;;;19.90;;
50128;SDS011;36026;45.478;9.224;2023-09-12T02:08:45;25.45;;;21.08;;
50128;SDS011;36026;45.478;9.224;2023-09-12T02:11:48;27.05;;;20.98;;
50128;SDS011;36026;45.478;9.224;2023-09-12T02:14:51;27.02;;;20.95;;
50128;SDS011;36026;45.478;9.224;2023-09-12T02:17:53;26.40;;;20.85;;
50128;SDS011;36026;45.478;9.224;2023-09-12T02:20:55;27.90;;;20.15;;
50128;SDS011;36026;45.478;9.224;2023-09-12T02:23:57;26.45;;;21.15;;
50128;SDS011;36026;45.478;9.224;2023-09-12T02:26:59;26.80;;;22.23;;
50128;SDS011;36026;45.478;9.224;2023-09-12T02:33:41;26.13;;;22.80;;
50128;SDS011;36026;45.478;9.224;2023-09-12T02:36:43;27.92;;;23.20;;
50128;SDS011;36026;45.478;9.224;2023-09-12T02:39:45;25.17;;;21.60;;
50128;SDS011;36026;45.478;9.224;2023-09-12T02:42:47;27.85;;;22.13;;
50128;SDS011;36026;45.478;9.224;2023-09-12T02:45:50;28.25;;;22.77;;
50128;SDS011;36026;45.478;9.224;2023-09-12T02:48:51;30.55;;;22.05;;
50128;SDS011;36026;45.478;9.224;2023-09-12T02:52:01;27.90;;;22.48;;
50128;SDS011;36026;45.478;9.224;2023-09-12T02:55:03;27.85;;;21.90;;
50128;SDS011;36026;45.478;9.224;2023-09-12T02:58:09;25.05;;;21.20;;
50128;SDS011;36026;45.478;9.224;2023-09-12T03:01:15;25.23;;;20.83;;
50128;SDS011;36026;45.478;9.224;2023-09-12T03:04:20;27.30;;;22.02;;
50128;SDS011;36026;45.478;9.224;2023-09-12T03:07:22;27.88;;;22.73;;
50128;SDS011;36026;45.478;9.224;2023-09-12T03:10:23;25.40;;;21.17;;
50128;SDS011;36026;45.478;9.224;2023-09-12T03:13:25;29.90;;;22.88;;
50128;SDS011;36026;45.478;9.224;2023-09-12T03:16:28;28.20;;;22.98;;
50128;SDS011;36026;45.478;9.224;2023-09-12T03:19:30;34.55;;;24.98;;
50128;SDS011;36026;45.478;9.224;2023-09-12T03:22:32;28.92;;;24.40;;
50128;SDS011;36026;45.478;9.224;2023-09-12T03:25:37;28.70;;;24.45;;
50128;SDS011;36026;45.478;9.224;2023-09-12T03:28:39;33.80;;;25.60;;
50128;SDS011;36026;45.478;9.224;2023-09-12T03:31:43;32.03;;;25.77;;
50128;SDS011;36026;45.478;9.224;2023-09-12T03:34:45;29.27;;;24.17;;
50128;SDS011;36026;45.478;9.224;2023-09-12T03:37:47;32.33;;;23.95;;
50128;SDS011;36026;45.478;9.224;2023-09-12T03:40:49;28.52;;;22.42;;
50128;SDS011;36026;45.478;9.224;2023-09-12T03:43:50;28.95;;;23.35;;
50128;SDS011;36026;45.478;9.224;2023-09-12T03:46:56;29.35;;;24.05;;
50128;SDS011;36026;45.478;9.224;2023-09-12T03:49:58;29.30;;;23.27;;
50128;SDS011;36026;45.478;9.224;2023-09-12T03:53:00;29.20;;;23.33;;
50128;SDS011;36026;45.478;9.224;2023-09-12T03:56:02;26.92;;;22.77;;
50128;SDS011;36026;45.478;9.224;2023-09-12T03:59:04;29.20;;;23.83;;
50128;SDS011;36026;45.478;9.224;2023-09-12T04:02:08;28.58;;;22.15;;
50128;SDS011;36026;45.478;9.224;2023-09-12T04:05:16;30.25;;;24.95;;
50128;SDS011;36026;45.478;9.224;2023-09-12T04:08:23;29.98;;;23.98;;
50128;SDS011;36026;45.478;9.224;2023-09-12T04:11:34;32.22;;;23.90;;
50128;SDS011;36026;45.478;9.224;2023-09-12T04:14:36;29.25;;;23.98;;
50128;SDS011;36026;45.478;9.224;2023-09-12T04:17:39;28.52;;;23.10;;
50128;SDS011;36026;45.478;9.224;2023-09-12T04:20:41;30.55;;;24.25;;
50128;SDS011;36026;45.478;9.224;2023-09-12T04:23:43;26.85;;;22.25;;
50128;SDS011;36026;45.478;9.224;2023-09-12T04:26:45;28.03;;;22.43;;
50128;SDS011;36026;45.478;9.224;2023-09-12T04:29:47;29.42;;;23.05;;
50128;SDS011;36026;45.478;9.224;2023-09-12T04:32:50;28.58;;;22.90;;
50128;SDS011;36026;45.478;9.224;2023-09-12T04:35:52;32.08;;;23.70;;
50128;SDS011;36026;45.478;9.224;2023-09-12T04:38:53;26.48;;;21.05;;
50128;SDS011;36026;45.478;9.224;2023-09-12T04:41:57;33.22;;;23.23;;
50128;SDS011;36026;45.478;9.224;2023-09-12T04:45:04;28.65;;;23.60;;
50128;SDS011;36026;45.478;9.224;2023-09-12T04:48:07;28.65;;;23.33;;
50128;SDS011;36026;45.478;9.224;2023-09-12T04:51:09;33.22;;;23.40;;
50128;SDS011;36026;45.478;9.224;2023-09-12T04:54:11;32.35;;;24.48;;
50128;SDS011;36026;45.478;9.224;2023-09-12T04:57:13;33.05;;;26.05;;
50128;SDS011;36026;45.478;9.224;2023-09-12T05:00:15;31.52;;;24.08;;
50128;SDS011;36026;45.478;9.224;2023-09-12T05:03:24;28.10;;;23.02;;
50128;SDS011;36026;45.478;9.224;2023-09-12T05:09:27;27.65;;;23.40;;
50128;SDS011;36026;45.478;9.224;2023-09-12T05:12:29;33.03;;;23.60;;
50128;SDS011;36026;45.478;9.224;2023-09-12T05:15:31;30.70;;;24.30;;
50128;SDS011;36026;45.478;9.224;2023-09-12T05:18:34;33.20;;;25.77;;
50128;SDS011;36026;45.478;9.224;2023-09-12T05:24:40;31.27;;;24.02;;
50128;SDS011;36026;45.478;9.224;2023-09-12T05:27:42;35.35;;;25.15;;
50128;SDS011;36026;45.478;9.224;2023-09-12T05:30:44;35.55;;;28.20;;
50128;SDS011;36026;45.478;9.224;2023-09-12T05:33:48;39.05;;;28.73;;
50128;SDS011;36026;45.478;9.224;2023-09-12T05:36:50;33.33;;;27.35;;
50128;SDS011;36026;45.478;9.224;2023-09-12T05:39:52;36.30;;;27.77;;
50128;SDS011;36026;45.478;9.224;2023-09-12T05:42:54;33.70;;;27.25;;
50128;SDS011;36026;45.478;9.224;2023-09-12T05:45:55;36.90;;;29.42;;
50128;SDS011;36026;45.478;9.224;2023-09-12T05:48:59;39.97;;;30.97;;
50128;SDS011;36026;45.478;9.224;2023-09-12T05:52:02;45.85;;;31.77;;
50128;SDS011;36026;45.478;9.224;2023-09-12T05:55:04;37.42;;;29.35;;
50128;SDS011;36026;45.478;9.224;2023-09-12T05:58:06;47.47;;;34.40;;
50128;SDS011;36026;45.478;9.224;2023-09-12T06:01:08;41.97;;;32.45;;
50128;SDS011;36026;45.478;9.224;2023-09-12T06:04:11;43.85;;;30.20;;
50128;SDS011;36026;45.478;9.224;2023-09-12T06:10:17;37.08;;;28.77;;
50128;SDS011;36026;45.478;9.224;2023-09-12T06:13:22;37.55;;;29.58;;
50128;SDS011;36026;45.478;9.224;2023-09-12T06:16:24;37.53;;;29.80;;
50128;SDS011;36026;45.478;9.224;2023-09-12T06:19:28;35.50;;;28.23;;
50128;SDS011;36026;45.478;9.224;2023-09-12T06:22:30;40.60;;;29.58;;
50128;SDS011;36026;45.478;9.224;2023-09-12T06:25:32;41.00;;;30.20;;
50128;SDS011;36026;45.478;9.224;2023-09-12T06:28:35;38.67;;;30.63;;
50128;SDS011;36026;45.478;9.224;2023-09-12T06:31:37;36.75;;;29.17;;
50128;SDS011;36026;45.478;9.224;2023-09-12T06:34:42;35.80;;;27.15;;
50128;SDS011;36026;45.478;9.224;2023-09-12T06:37:44;37.03;;;28.67;;
50128;SDS011;36026;45.478;9.224;2023-09-12T06:40:47;41.50;;;29.33;;
50128;SDS011;36026;45.478;9.224;2023-09-12T06:43:49;38.83;;;27.90;;
50128;SDS011;36026;45.478;9.224;2023-09-12T06:46:51;38.05;;;27.17;;
50128;SDS011;36026;45.478;9.224;2023-09-12T06:49:54;35.40;;;27.67;;
50128;SDS011;36026;45.478;9.224;2023-09-12T06:52:55;37.78;;;28.38;;
50128;SDS011;36026;45.478;9.224;2023-09-12T06:55:57;38.28;;;27.45;;
50128;SDS011;36026;45.478;9.224;2023-09-12T06:59:00;36.40;;;28.33;;
50128;SDS011;36026;45.478;9.224;2023-09-12T07:02:04;32.05;;;25.30;;
50128;SDS011;36026;45.478;9.224;2023-09-12T07:05:08;38.13;;;28.30;;
50128;SDS011;36026;45.478;9.224;2023-09-12T07:08:10;33.10;;;26.77;;
50128;SDS011;36026;45.478;9.224;2023-09-12T07:11:12;37.30;;;26.50;;
50128;SDS011;36026;45.478;9.224;2023-09-12T07:14:14;37.58;;;28.40;;
50128;SDS011;36026;45.478;9.224;2023-09-12T07:17:15;32.90;;;26.35;;
50128;SDS011;36026;45.478;9.224;2023-09-12T07:20:19;33.35;;;24.17;;
50128;SDS011;36026;45.478;9.224;2023-09-12T07:26:25;29.17;;;22.45;;
50128;SDS011;36026;45.478;9.224;2023-09-12T07:29:27;30.08;;;21.45;;
50128;SDS011;36026;45.478;9.224;2023-09-12T07:32:29;27.92;;;22.70;;
50128;SDS011;36026;45.478;9.224;2023-09-12T07:35:32;30.05;;;23.02;;
50128;SDS011;36026;45.478;9.224;2023-09-12T07:38:34;29.38;;;22.17;;
50128;SDS011;36026;45.478;9.224;2023-09-12T07:44:44;27.98;;;23.88;;
50128;SDS011;36026;45.478;9.224;2023-09-12T07:47:46;28.45;;;23.55;;
50128;SDS011;36026;45.478;9.224;2023-09-12T07:50:49;32.08;;;23.42;;
50128;SDS011;36026;45.478;9.224;2023-09-12T07:53:52;28.33;;;22.42;;
50128;SDS011;36026;45.478;9.224;2023-09-12T07:56:53;33.70;;;24.15;;
50128;SDS011;36026;45.478;9.224;2023-09-12T07:59:55;29.88;;;25.10;;
50128;SDS011;36026;45.478;9.224;2023-09-12T08:02:57;30.67;;;23.23;;
50128;SDS011;36026;45.478;9.224;2023-09-12T08:06:00;32.20;;;23.38;;
50128;SDS011;36026;45.478;9.224;2023-09-12T08:09:03;28.25;;;22.13;;
50128;SDS011;36026;45.478;9.224;2023-09-12T08:12:05;27.42;;;23.17;;
50128;SDS011;36026;45.478;9.224;2023-09-12T08:18:10;28.55;;;24.98;;
50128;SDS011;36026;45.478;9.224;2023-09-12T08:21:13;38.70;;;28.00;;
50128;SDS011;36026;45.478;9.224;2023-09-12T08:24:15;32.35;;;26.33;;
50128;SDS011;36026;45.478;9.224;2023-09-12T08:27:17;33.10;;;25.45;;
50128;SDS011;36026;45.478;9.224;2023-09-12T08:30:18;31.50;;;24.63;;
50128;SDS011;36026;45.478;9.224;2023-09-12T08:33:20;28.60;;;25.08;;
50128;SDS011;36026;45.478;9.224;2023-09-12T08:36:23;28.20;;;24.20;;
50128;SDS011;36026;45.478;9.224;2023-09-12T08:39:26;30.10;;;25.98;;
50128;SDS011;36026;45.478;9.224;2023-09-12T08:42:29;27.52;;;23.48;;
50128;SDS011;36026;45.478;9.224;2023-09-12T08:45:32;34.05;;;25.95;;
50128;SDS011;36026;45.478;9.224;2023-09-12T08:48:33;28.40;;;22.43;;
50128;SDS011;36026;45.478;9.224;2023-09-12T08:51:41;24.52;;;21.35;;
50128;SDS011;36026;45.478;9.224;2023-09-12T08:54:44;28.83;;;24.10;;
50128;SDS011;36026;45.478;9.224;2023-09-12T08:57:47;30.10;;;25.63;;
50128;SDS011;36026;45.478;9.224;2023-09-12T09:00:49;33.83;;;26.33;;
50128;SDS011;36026;45.478;9.224;2023-09-12T09:06:54;52.47;;;21.58;;
50128;SDS011;36026;45.478;9.224;2023-09-12T09:09:58;25.83;;;18.85;;
50128;SDS011;36026;45.478;9.224;2023-09-12T09:13:02;26.83;;;20.65;;
50128;SDS011;36026;45.478;9.224;2023-09-12T09:16:10;27.67;;;24.67;;
50128;SDS011;36026;45.478;9.224;2023-09-12T09:19:12;34.90;;;26.17;;
50128;SDS011;36026;45.478;9.224;2023-09-12T09:22:18;31.17;;;25.92;;
50128;SDS011;36026;45.478;9.224;2023-09-12T09:25:19;34.70;;;23.58;;
50128;SDS011;36026;45.478;9.224;2023-09-12T09:28:21;36.03;;;27.00;;
50128;SDS011;36026;45.478;9.224;2023-09-12T09:31:24;27.95;;;23.83;;
50128;SDS011;36026;45.478;9.224;2023-09-12T09:34:26;27.35;;;23.73;;
50128;SDS011;36026;45.478;9.224;2023-09-12T09:37:30;22.13;;;16.92;;
50128;SDS011;36026;45.478;9.224;2023-09-12T09:40:33;24.15;;;16.00;;
50128;SDS011;36026;45.478;9.224;2023-09-12T09:43:36;22.00;;;16.27;;
50128;SDS011;36026;45.478;9.224;2023-09-12T09:46:37;21.45;;;16.80;;
50128;SDS011;36026;45.478;9.224;2023-09-12T09:49:39;18.80;;;16.85;;
50128;SDS011;36026;45.478;9.224;2023-09-12T09:52:43;19.25;;;14.95;;
50128;SDS011;36026;45.478;9.224;2023-09-12T09:55:45;15.98;;;11.52;;
50128;SDS011;36026;45.478;9.224;2023-09-12T09:58:48;16.58;;;13.00;;
50128;SDS011;36026;45.478;9.224;2023-09-12T10:01:50;8.85;;;7.78;;
50128;SDS011;36026;45.478;9.224;2023-09-12T10:04:54;8.20;;;7.35;;
50128;SDS011;36026;45.478;9.224;2023-09-12T10:08:09;10.25;;;7.78;;
50128;SDS011;36026;45.478;9.224;2023-09-12T10:11:11;8.25;;;6.85;;
50128;SDS011;36026;45.478;9.224;2023-09-12T10:14:21;11.23;;;6.78;;
50128;SDS011;36026;45.478;9.224;2023-09-12T10:17:24;10.15;;;6.22;;
50128;SDS011;36026;45.478;9.224;2023-09-12T10:20:33;7.50;;;6.70;;
50128;SDS011;36026;45.478;9.224;2023-09-12T10:23:58;6.70;;;6.00;;
50128;SDS011;36026;45.478;9.224;2023-09-12T10:27:00;11.13;;;7.50;;
50128;SDS011;36026;45.478;9.224;2023-09-12T10:30:05;9.32;;;7.20;;
50128;SDS011;36026;45.478;9.224;2023-09-12T10:33:22;7.50;;;6.72;;
50128;SDS011;36026;45.478;9.224;2023-09-12T10:43:10;8.13;;;7.28;;
50128;SDS011;36026;45.478;9.224;2023-09-12T10:46:12;10.90;;;7.70;;
50128;SDS011;36026;45.478;9.224;2023-09-12T10:49:24;10.68;;;7.85;;
50128;SDS011;36026;45.478;9.224;2023-09-12T10:52:26;10.52;;;8.02;;
50128;SDS011;36026;45.478;9.224;2023-09-12T10:55:30;8.80;;;7.80;;
50128;SDS011;36026;45.478;9.224;2023-09-12T10:58:31;8.68;;;7.15;;
50128;SDS011;36026;45.478;9.224;2023-09-12T11:01:34;7.82;;;6.25;;
50128;SDS011;36026;45.478;9.224;2023-09-12T11:04:36;9.00;;;8.10;;
50128;SDS011;36026;45.478;9.224;2023-09-12T11:07:47;12.45;;;7.72;;
50128;SDS011;36026;45.478;9.224;2023-09-12T11:14:21;10.18;;;7.95;;
50128;SDS011;36026;45.478;9.224;2023-09-12T11:17:26;10.93;;;7.90;;
50128;SDS011;36026;45.478;9.224;2023-09-12T11:23:53;7.97;;;7.18;;
50128;SDS011;36026;45.478;9.224;2023-09-12T11:27:00;12.48;;;7.20;;
50128;SDS011;36026;45.478;9.224;2023-09-12T11:30:05;7.90;;;7.10;;
50128;SDS011;36026;45.478;9.224;2023-09-12T11:33:10;7.85;;;7.00;;
50128;SDS011;36026;45.478;9.224;2023-09-12T11:36:18;11.18;;;7.18;;
50128;SDS011;36026;45.478;9.224;2023-09-12T11:39:23;11.35;;;7.00;;
50128;SDS011;36026;45.478;9.224;2023-09-12T11:42:30;8.18;;;7.18;;
50128;SDS011;36026;45.478;9.224;2023-09-12T11:45:31;11.18;;;6.97;;
50128;SDS011;36026;45.478;9.224;2023-09-12T11:48:34;8.27;;;7.05;;
50128;SDS011;36026;45.478;9.224;2023-09-12T11:51:45;10.45;;;6.05;;
50128;SDS011;36026;45.478;9.224;2023-09-12T11:55:30;6.50;;;5.20;;
50128;SDS011;36026;45.478;9.224;2023-09-12T11:58:26;11.18;;;5.60;;
50128;SDS011;36026;45.478;9.224;2023-09-12T12:01:29;7.15;;;5.57;;
50128;SDS011;36026;45.478;9.224;2023-09-12T12:04:31;7.55;;;5.50;;
50128;SDS011;36026;45.478;9.224;2023-09-12T12:08:06;6.82;;;5.28;;
50128;SDS011;36026;45.478;9.224;2023-09-12T12:11:09;8.32;;;5.70;;
50128;SDS011;36026;45.478;9.224;2023-09-12T12:17:15;5.65;;;5.13;;
50128;SDS011;36026;45.478;9.224;2023-09-12T12:20:23;6.07;;;5.40;;
50128;SDS011;36026;45.478;9.224;2023-09-12T12:23:33;6.38;;;5.30;;
50128;SDS011;36026;45.478;9.224;2023-09-12T12:33:14;9.05;;;5.30;;
50128;SDS011;36026;45.478;9.224;2023-09-12T12:36:25;6.35;;;4.97;;
50128;SDS011;36026;45.478;9.224;2023-09-12T12:39:42;6.68;;;5.25;;
50128;SDS011;36026;45.478;9.224;2023-09-12T12:42:59;6.05;;;5.45;;
50128;SDS011;36026;45.478;9.224;2023-09-12T12:46:03;5.45;;;4.93;;
50128;SDS011;36026;45.478;9.224;2023-09-12T12:49:37;5.65;;;5.10;;
50128;SDS011;36026;45.478;9.224;2023-09-12T12:53:02;7.93;;;4.95;;
50128;SDS011;36026;45.478;9.224;2023-09-12T12:59:36;5.22;;;4.70;;
50128;SDS011;36026;45.478;9.224;2023-09-12T13:02:40;6.43;;;5.25;;
50128;SDS011;36026;45.478;9.224;2023-09-12T13:12:46;6.63;;;5.15;;
50128;SDS011;36026;45.478;9.224;2023-09-12T13:16:02;5.45;;;4.95;;
50128;SDS011;36026;45.478;9.224;2023-09-12T13:19:09;8.40;;;5.10;;
50128;SDS011;36026;45.478;9.224;2023-09-12T13:30:36;9.13;;;5.30;;
50128;SDS011;36026;45.478;9.224;2023-09-12T13:36:52;9.70;;;6.00;;
50128;SDS011;36026;45.478;9.224;2023-09-12T13:40:22;6.78;;;5.47;;
50128;SDS011;36026;45.478;9.224;2023-09-12T13:43:43;6.70;;;5.80;;
50128;SDS011;36026;45.478;9.224;2023-09-12T13:51:03;6.30;;;5.47;;
50128;SDS011;36026;45.478;9.224;2023-09-12T13:58:57;7.95;;;5.43;;
50128;SDS011;36026;45.478;9.224;2023-09-12T14:30:16;6.25;;;5.60;;
50128;SDS011;36026;45.478;9.224;2023-09-12T14:41:51;6.28;;;5.53;;
50128;SDS011;36026;45.478;9.224;2023-09-12T14:57:33;7.10;;;5.45;;
50128;SDS011;36026;45.478;9.224;2023-09-12T15:00:36;9.88;;;5.60;;
50128;SDS011;36026;45.478;9.224;2023-09-12T15:03:42;10.68;;;6.00;;
50128;SDS011;36026;45.478;9.224;2023-09-12T15:06:43;6.63;;;5.70;;
50128;SDS011;36026;45.478;9.224;2023-09-12T15:09:47;10.77;;;5.40;;
50128;SDS011;36026;45.478;9.224;2023-09-12T15:12:56;7.63;;;5.85;;
50128;SDS011;36026;45.478;9.224;2023-09-12T15:16:02;7.35;;;5.55;;
50128;SDS011;36026;45.478;9.224;2023-09-12T15:22:33;8.20;;;5.97;;
50128;SDS011;36026;45.478;9.224;2023-09-12T15:25:35;5.93;;;5.43;;
50128;SDS011;36026;45.478;9.224;2023-09-12T15:28:57;6.30;;;5.70;;
50128;SDS011;36026;45.478;9.224;2023-09-12T15:35:30;10.32;;;5.88;;
50128;SDS011;36026;45.478;9.224;2023-09-12T15:42:29;6.95;;;5.70;;
50128;SDS011;36026;45.478;9.224;2023-09-12T15:46:06;7.32;;;5.65;;
50128;SDS011;36026;45.478;9.224;2023-09-12T15:49:11;8.57;;;5.90;;
50128;SDS011;36026;45.478;9.224;2023-09-12T15:52:27;9.10;;;5.85;;
50128;SDS011;36026;45.478;9.224;2023-09-12T15:55:37;6.57;;;5.57;;
50128;SDS011;36026;45.478;9.224;2023-09-12T16:01:48;6.97;;;5.82;;
50128;SDS011;36026;45.478;9.224;2023-09-12T16:04:50;6.50;;;5.60;;
50128;SDS011;36026;45.478;9.224;2023-09-12T16:07:53;5.95;;;5.35;;
50128;SDS011;36026;45.478;9.224;2023-09-12T16:11:01;6.40;;;5.80;;
50128;SDS011;36026;45.478;9.224;2023-09-12T16:14:03;8.25;;;5.50;;
50128;SDS011;36026;45.478;9.224;2023-09-12T16:17:35;9.13;;;6.50;;
50128;SDS011;36026;45.478;9.224;2023-09-12T16:20:42;12.18;;;5.85;;
50128;SDS011;36026;45.478;9.224;2023-09-12T16:23:44;7.07;;;5.85;;
50128;SDS011;36026;45.478;9.224;2023-09-12T16:26:46;7.15;;;5.70;;
50128;SDS011;36026;45.478;9.224;2023-09-12T16:30:11;7.07;;;5.40;;
50128;SDS011;36026;45.478;9.224;2023-09-12T16:33:14;7.15;;;6.18;;
50128;SDS011;36026;45.478;9.224;2023-09-12T16:36:19;11.48;;;6.38;;
50128;SDS011;36026;45.478;9.224;2023-09-12T16:39:21;8.98;;;6.20;;
50128;SDS011;36026;45.478;9.224;2023-09-12T16:42:24;7.22;;;6.00;;
50128;SDS011;36026;45.478;9.224;2023-09-12T16:45:30;7.15;;;6.05;;
50128;SDS011;36026;45.478;9.224;2023-09-12T16:48:33;9.70;;;6.32;;
50128;SDS011;36026;45.478;9.224;2023-09-12T16:51:36;13.15;;;6.07;;
50128;SDS011;36026;45.478;9.224;2023-09-12T16:54:38;17.50;;;7.13;;
50128;SDS011;36026;45.478;9.224;2023-09-12T16:57:40;14.75;;;7.13;;
50128;SDS011;36026;45.478;9.224;2023-09-12T17:00:44;8.20;;;6.93;;
50128;SDS011;36026;45.478;9.224;2023-09-12T17:03:56;11.90;;;6.60;;
50128;SDS011;36026;45.478;9.224;2023-09-12T17:10:00;6.90;;;6.20;;
50128;SDS011;36026;45.478;9.224;2023-09-12T17:13:02;6.83;;;6.13;;
50128;SDS011;36026;45.478;9.224;2023-09-12T17:16:05;8.10;;;6.55;;
50128;SDS011;36026;45.478;9.224;2023-09-12T17:19:11;8.05;;;6.75;;
50128;SDS011;36026;45.478;9.224;2023-09-12T17:22:13;7.38;;;6.05;;
50128;SDS011;36026;45.478;9.224;2023-09-12T17:25:15;7.50;;;6.67;;
50128;SDS011;36026;45.478;9.224;2023-09-12T17:28:17;13.38;;;6.40;;
50128;SDS011;36026;45.478;9.224;2023-09-12T17:31:19;10.40;;;6.50;;
50128;SDS011;36026;45.478;9.224;2023-09-12T17:34:32;7.97;;;7.17;;
50128;SDS011;36026;45.478;9.224;2023-09-12T17:37:40;7.65;;;6.82;;
50128;SDS011;36026;45.478;9.224;2023-09-12T17:40:42;8.30;;;6.78;;
50128;SDS011;36026;45.478;9.224;2023-09-12T17:43:45;13.20;;;7.50;;
50128;SDS011;36026;45.478;9.224;2023-09-12T17:46:47;10.13;;;6.47;;
50128;SDS011;36026;45.478;9.224;2023-09-12T17:49:51;9.35;;;6.80;;
50128;SDS011;36026;45.478;9.224;2023-09-12T17:52:52;9.40;;;7.13;;
50128;SDS011;36026;45.478;9.224;2023-09-12T17:59:16;8.60;;;4.60;;
50128;SDS011;36026;45.478;9.224;2023-09-12T18:02:36;7.72;;;4.82;;
50128;SDS011;36026;45.478;9.224;2023-09-12T18:13:33;8.07;;;5.00;;
50128;SDS011;36026;45.478;9.224;2023-09-12T18:21:42;12.43;;;4.80;;
50128;SDS011;36026;45.478;9.224;2023-09-12T18:24:43;5.72;;;4.72;;
50128;SDS011;36026;45.478;9.224;2023-09-12T18:28:11;8.80;;;5.10;;
50128;SDS011;36026;45.478;9.224;2023-09-12T18:36:11;7.60;;;4.57;;
50128;SDS011;36026;45.478;9.224;2023-09-12T19:03:15;9.18;;;4.68;;
50128;SDS011;36026;45.478;9.224;2023-09-12T19:06:21;6.45;;;4.32;;
50128;SDS011;36026;45.478;9.224;2023-09-12T19:09:30;6.10;;;4.65;;
50128;SDS011;36026;45.478;9.224;2023-09-12T19:12:32;5.75;;;4.35;;
50128;SDS011;36026;45.478;9.224;2023-09-12T19:19:11;7.97;;;4.38;;
50128;SDS011;36026;45.478;9.224;2023-09-12T19:27:03;8.23;;;4.40;;
50128;SDS011;36026;45.478;9.224;2023-09-12T19:30:30;8.88;;;5.13;;
50128;SDS011;36026;45.478;9.224;2023-09-12T19:34:19;7.10;;;4.53;;
50128;SDS011;36026;45.478;9.224;2023-09-12T19:37:45;9.23;;;4.47;;
50128;SDS011;36026;45.478;9.224;2023-09-12T19:41:04;5.00;;;4.50;;
50128;SDS011;36026;45.478;9.224;2023-09-12T19:44:45;7.63;;;4.68;;
50128;SDS011;36026;45.478;9.224;2023-09-12T20:53:49;7.47;;;5.00;;
